sensor_id;sensor_type;location;lat;lon;timestamp;pressure;altitude;pressure_sealevel;temperature;humidity
39681;BME280;26327;42.550;23.120;2023-02-11T08:42:28;94164.75;;;12.01;23.56
39681;BME280;26327;42.550;23.120;2023-02-11T08:44:54;94171.19;;;12.81;22.71
39681;BME280;26327;42.550;23.120;2023-02-11T08:47:19;94102.94;;;11.17;23.41
39681;BME280;26327;42.550;23.120;2023-02-11T08:49:45;94153.25;;;12.95;22.52
39681;BME280;26327;42.550;23.120;2023-02-11T08:52:10;94209.00;;;11.06;24.37
39681;BME280;26327;42.550;23.120;2023-02-11T08:54:36;94124.94;;;12.25;23.36
39681;BME280;26327;42.550;23.120;2023-02-11T08:57:02;93999.53;;;12.28;22.45
39681;BME280;26327;42.550;23.120;2023-02-11T08:59:28;94096.53;;;9.69;25.68
39681;BME280;26327;42.550;23.120;2023-02-11T09:01:54;93967.66;;;7.83;27.11
39681;BME280;26327;42.550;23.120;2023-02-11T09:04:19;94150.09;;;10.79;25.52
39681;BME280;26327;42.550;23.120;2023-02-11T09:06:45;94120.63;;;12.66;22.73
39681;BME280;26327;42.550;23.120;2023-02-11T09:09:12;94105.47;;;13.90;21.88
39681;BME280;26327;42.550;23.120;2023-02-11T09:11:39;94118.38;;;12.96;22.16
39681;BME280;26327;42.550;23.120;2023-02-11T09:14:06;94104.03;;;13.32;21.13
39681;BME280;26327;42.550;23.120;2023-02-11T09:16:35;94119.78;;;14.72;21.20
39681;BME280;26327;42.550;23.120;2023-02-11T09:19:02;94188.28;;;15.97;19.54
39681;BME280;26327;42.550;23.120;2023-02-11T09:21:28;94174.66;;;14.02;20.75
39681;BME280;26327;42.550;23.120;2023-02-11T09:23:54;94191.88;;;11.64;23.01
39681;BME280;26327;42.550;23.120;2023-02-11T09:26:23;94030.06;;;14.41;20.52
39681;BME280;26327;42.550;23.120;2023-02-11T09:28:49;94059.72;;;14.79;20.63
39681;BME280;26327;42.550;23.120;2023-02-11T09:31:17;94076.91;;;16.22;19.46
39681;BME280;26327;42.550;23.120;2023-02-11T09:33:45;94189.44;;;16.68;18.75
39681;BME280;26327;42.550;23.120;2023-02-11T09:36:16;94189.16;;;16.78;18.52
39681;BME280;26327;42.550;23.120;2023-02-11T09:38:42;94158.66;;;10.53;23.86
39681;BME280;26327;42.550;23.120;2023-02-11T09:43:57;94180.66;;;15.12;21.01
39681;BME280;26327;42.550;23.120;2023-02-11T09:46:31;94073.78;;;15.68;19.74
39681;BME280;26327;42.550;23.120;2023-02-11T09:48:58;94087.63;;;15.62;19.23
39681;BME280;26327;42.550;23.120;2023-02-11T09:51:41;94155.06;;;16.63;18.85
39681;BME280;26327;42.550;23.120;2023-02-11T09:57:12;94072.84;;;17.82;18.02
39681;BME280;26327;42.550;23.120;2023-02-11T09:59:38;94143.22;;;17.31;19.11
39681;BME280;26327;42.550;23.120;2023-02-11T10:02:28;94138.53;;;16.33;19.27
39681;BME280;26327;42.550;23.120;2023-02-11T10:05:24;94063.38;;;17.88;17.54
39681;BME280;26327;42.550;23.120;2023-02-11T10:08:02;94134.56;;;18.62;17.74
39681;BME280;26327;42.550;23.120;2023-02-11T10:10:49;94111.72;;;20.15;15.97
39681;BME280;26327;42.550;23.120;2023-02-11T10:19:25;94104.94;;;20.38;15.28
39681;BME280;26327;42.550;23.120;2023-02-11T10:24:27;94054.19;;;20.43;16.00
39681;BME280;26327;42.550;23.120;2023-02-11T10:26:53;94096.09;;;20.64;16.03
39681;BME280;26327;42.550;23.120;2023-02-11T10:29:30;94091.41;;;21.04;15.15
39681;BME280;26327;42.550;23.120;2023-02-11T10:31:59;94078.91;;;19.77;15.41
39681;BME280;26327;42.550;23.120;2023-02-11T10:34:26;94069.03;;;20.24;15.29
39681;BME280;26327;42.550;23.120;2023-02-11T10:36:51;94054.53;;;20.53;14.67
39681;BME280;26327;42.550;23.120;2023-02-11T10:39:22;94060.28;;;18.19;16.87
39681;BME280;26327;42.550;23.120;2023-02-11T10:44:58;94055.25;;;20.67;14.97
39681;BME280;26327;42.550;23.120;2023-02-11T10:47:25;94041.66;;;19.54;15.28
39681;BME280;26327;42.550;23.120;2023-02-11T10:49:51;94040.81;;;19.60;15.47
39681;BME280;26327;42.550;23.120;2023-02-11T10:52:25;93930.56;;;18.05;16.82
39681;BME280;26327;42.550;23.120;2023-02-11T10:57:59;94020.38;;;18.83;16.57
39681;BME280;26327;42.550;23.120;2023-02-11T11:03:24;94031.56;;;10.42;22.56
39681;BME280;26327;42.550;23.120;2023-02-11T11:08:16;94008.59;;;15.06;20.10
39681;BME280;26327;42.550;23.120;2023-02-11T11:10:47;93990.22;;;17.57;18.65
39681;BME280;26327;42.550;23.120;2023-02-11T11:13:23;94007.81;;;18.65;16.84
39681;BME280;26327;42.550;23.120;2023-02-11T11:16:26;94005.78;;;19.13;16.58
39681;BME280;26327;42.550;23.120;2023-02-11T11:24:00;93938.66;;;20.95;15.34
39681;BME280;26327;42.550;23.120;2023-02-11T11:26:38;93976.56;;;19.35;16.24
39681;BME280;26327;42.550;23.120;2023-02-11T11:29:12;94001.47;;;18.46;17.04
39681;BME280;26327;42.550;23.120;2023-02-11T11:31:59;93996.16;;;19.78;16.33
39681;BME280;26327;42.550;23.120;2023-02-11T11:34:29;93984.38;;;19.88;15.81
39681;BME280;26327;42.550;23.120;2023-02-11T11:36:57;93988.88;;;21.13;15.14
39681;BME280;26327;42.550;23.120;2023-02-11T11:39:29;93963.94;;;20.15;16.58
39681;BME280;26327;42.550;23.120;2023-02-11T11:42:01;93958.19;;;19.02;16.22
39681;BME280;26327;42.550;23.120;2023-02-11T11:44:34;93930.78;;;18.17;16.62
39681;BME280;26327;42.550;23.120;2023-02-11T11:49:38;93990.84;;;16.32;18.21
39681;BME280;26327;42.550;23.120;2023-02-11T11:54:39;93949.97;;;15.15;20.13
39681;BME280;26327;42.550;23.120;2023-02-11T11:57:17;93904.47;;;13.66;20.49
39681;BME280;26327;42.550;23.120;2023-02-11T11:59:43;93920.25;;;13.02;21.93
39681;BME280;26327;42.550;23.120;2023-02-11T12:05:13;93929.78;;;11.73;22.68
39681;BME280;26327;42.550;23.120;2023-02-11T12:10:48;93887.66;;;9.73;24.08
39681;BME280;26327;42.550;23.120;2023-02-11T12:13:52;93962.19;;;10.60;21.94
39681;BME280;26327;42.550;23.120;2023-02-11T12:16:26;93942.00;;;10.54;21.84
39681;BME280;26327;42.550;23.120;2023-02-11T12:38:31;93928.66;;;9.07;24.82
39681;BME280;26327;42.550;23.120;2023-02-11T12:41:16;93941.56;;;8.89;25.57
39681;BME280;26327;42.550;23.120;2023-02-11T12:44:13;93817.47;;;7.55;24.09
39681;BME280;26327;42.550;23.120;2023-02-11T12:54:51;93848.81;;;7.14;26.03
39681;BME280;26327;42.550;23.120;2023-02-11T12:57:30;93940.69;;;7.76;26.37
39681;BME280;26327;42.550;23.120;2023-02-11T13:05:39;93906.63;;;7.42;27.09
39681;BME280;26327;42.550;23.120;2023-02-11T13:08:43;93920.78;;;7.47;26.27
39681;BME280;26327;42.550;23.120;2023-02-11T13:11:17;93819.25;;;6.68;27.97
39681;BME280;26327;42.550;23.120;2023-02-11T13:24:55;93892.56;;;6.96;27.44
39681;BME280;26327;42.550;23.120;2023-02-11T13:27:47;93783.81;;;6.30;28.77
39681;BME280;26327;42.550;23.120;2023-02-11T13:30:29;93899.78;;;7.02;28.47
39681;BME280;26327;42.550;23.120;2023-02-11T13:35:32;93905.16;;;6.70;27.92
39681;BME280;26327;42.550;23.120;2023-02-11T13:37:59;93897.06;;;6.23;28.43
39681;BME280;26327;42.550;23.120;2023-02-11T13:40:35;93916.69;;;6.15;30.86
39681;BME280;26327;42.550;23.120;2023-02-11T13:43:03;93812.06;;;5.50;30.71
39681;BME280;26327;42.550;23.120;2023-02-11T13:45:42;93899.97;;;6.09;29.45
39681;BME280;26327;42.550;23.120;2023-02-11T13:48:21;93901.41;;;6.23;30.05
39681;BME280;26327;42.550;23.120;2023-02-11T13:50:50;93866.06;;;5.72;31.44
39681;BME280;26327;42.550;23.120;2023-02-11T13:53:18;93852.97;;;5.22;33.01
39681;BME280;26327;42.550;23.120;2023-02-11T13:55:47;93893.34;;;5.54;32.48
39681;BME280;26327;42.550;23.120;2023-02-11T14:06:25;93876.66;;;5.69;32.04
39681;BME280;26327;42.550;23.120;2023-02-11T14:12:21;93878.69;;;5.54;32.16
39681;BME280;26327;42.550;23.120;2023-02-11T14:15:18;93859.63;;;5.25;33.72
39681;BME280;26327;42.550;23.120;2023-02-11T14:17:42;93865.50;;;4.84;32.86
39681;BME280;26327;42.550;23.120;2023-02-11T14:20:34;93880.66;;;4.98;33.87
39681;BME280;26327;42.550;23.120;2023-02-11T14:23:00;93849.16;;;5.05;32.32
39681;BME280;26327;42.550;23.120;2023-02-11T14:25:26;93875.72;;;5.06;31.78
39681;BME280;26327;42.550;23.120;2023-02-11T14:28:02;93718.97;;;4.05;30.34
39681;BME280;26327;42.550;23.120;2023-02-11T14:33:46;93871.44;;;4.95;31.08
39681;BME280;26327;42.550;23.120;2023-02-11T14:41:46;93761.75;;;4.18;31.94
39681;BME280;26327;42.550;23.120;2023-02-11T14:44:24;93863.88;;;4.71;32.64
39681;BME280;26327;42.550;23.120;2023-02-11T14:46:52;93842.38;;;4.50;33.23
39681;BME280;26327;42.550;23.120;2023-02-11T14:49:31;93723.91;;;3.75;32.83
39681;BME280;26327;42.550;23.120;2023-02-11T14:52:29;93871.38;;;4.63;31.72
39681;BME280;26327;42.550;23.120;2023-02-11T14:55:34;93688.44;;;3.58;33.36
39681;BME280;26327;42.550;23.120;2023-02-11T14:58:17;93792.38;;;4.21;32.01
39681;BME280;26327;42.550;23.120;2023-02-11T15:04:13;93799.28;;;3.98;31.53
39681;BME280;26327;42.550;23.120;2023-02-11T15:06:46;93854.56;;;4.48;30.56
39681;BME280;26327;42.550;23.120;2023-02-11T15:09:20;93799.28;;;3.98;32.27
39681;BME280;26327;42.550;23.120;2023-02-11T15:11:50;93779.88;;;3.71;34.08
39681;BME280;26327;42.550;23.120;2023-02-11T15:14:26;93842.19;;;3.97;35.08
39681;BME280;26327;42.550;23.120;2023-02-11T15:16:54;93832.84;;;3.85;34.89
39681;BME280;26327;42.550;23.120;2023-02-11T15:19:28;93787.22;;;3.42;35.58
39681;BME280;26327;42.550;23.120;2023-02-11T15:21:55;93866.50;;;3.93;35.50
39681;BME280;26327;42.550;23.120;2023-02-11T15:24:31;93851.31;;;3.79;36.37
39681;BME280;26327;42.550;23.120;2023-02-11T15:29:42;93853.41;;;3.04;38.73
39681;BME280;26327;42.550;23.120;2023-02-11T15:34:33;93685.63;;;2.00;40.61
39681;BME280;26327;42.550;23.120;2023-02-11T15:36:59;93851.06;;;3.01;38.52
39681;BME280;26327;42.550;23.120;2023-02-11T15:39:36;93840.44;;;2.70;39.96
39681;BME280;26327;42.550;23.120;2023-02-11T15:42:34;93858.28;;;2.72;41.52
39681;BME280;26327;42.550;23.120;2023-02-11T15:47:51;93867.69;;;1.85;49.48
39681;BME280;26327;42.550;23.120;2023-02-11T15:50:23;93756.34;;;1.53;44.71
39681;BME280;26327;42.550;23.120;2023-02-11T15:52:49;93849.56;;;2.01;45.41
39681;BME280;26327;42.550;23.120;2023-02-11T15:55:16;93856.31;;;2.02;45.12
39681;BME280;26327;42.550;23.120;2023-02-11T15:57:50;93854.47;;;1.79;46.57
39681;BME280;26327;42.550;23.120;2023-02-11T16:00:19;93809.94;;;1.43;46.09
39681;BME280;26327;42.550;23.120;2023-02-11T16:02:46;93776.94;;;1.13;45.86
39681;BME280;26327;42.550;23.120;2023-02-11T16:05:34;93860.09;;;1.33;47.17
39681;BME280;26327;42.550;23.120;2023-02-11T16:08:12;93853.81;;;1.12;46.52
39681;BME280;26327;42.550;23.120;2023-02-11T16:10:53;93832.88;;;0.53;50.47
39681;BME280;26327;42.550;23.120;2023-02-11T16:13:22;93788.81;;;-0.06;54.02
39681;BME280;26327;42.550;23.120;2023-02-11T16:18:27;93763.66;;;0.02;53.55
39681;BME280;26327;42.550;23.120;2023-02-11T16:20:53;93735.41;;;-0.23;52.01
39681;BME280;26327;42.550;23.120;2023-02-11T16:23:26;93856.81;;;0.52;52.53
39681;BME280;26327;42.550;23.120;2023-02-11T16:29:06;93867.44;;;0.31;55.81
39681;BME280;26327;42.550;23.120;2023-02-11T16:31:37;93841.84;;;-0.24;58.33
39681;BME280;26327;42.550;23.120;2023-02-11T16:34:11;93862.47;;;-0.41;59.63
39681;BME280;26327;42.550;23.120;2023-02-11T16:36:37;93885.63;;;-0.30;57.63
39681;BME280;26327;42.550;23.120;2023-02-11T16:39:02;93803.38;;;-0.49;57.17
39681;BME280;26327;42.550;23.120;2023-02-11T16:41:28;93885.28;;;-0.24;57.91
39681;BME280;26327;42.550;23.120;2023-02-11T16:43:55;93863.81;;;-0.50;60.35
39681;BME280;26327;42.550;23.120;2023-02-11T16:46:22;93792.09;;;-1.04;59.69
39681;BME280;26327;42.550;23.120;2023-02-11T16:48:47;93788.81;;;-1.06;60.63
39681;BME280;26327;42.550;23.120;2023-02-11T16:51:12;93877.53;;;-0.81;63.49
39681;BME280;26327;42.550;23.120;2023-02-11T16:53:38;93890.75;;;-0.74;63.91
39681;BME280;26327;42.550;23.120;2023-02-11T16:56:03;93896.91;;;-0.92;66.06
39681;BME280;26327;42.550;23.120;2023-02-11T16:58:29;93801.72;;;-1.53;66.42
39681;BME280;26327;42.550;23.120;2023-02-11T17:00:54;93894.94;;;-0.87;65.11
39681;BME280;26327;42.550;23.120;2023-02-11T17:03:23;93881.09;;;-0.83;62.69
39681;BME280;26327;42.550;23.120;2023-02-11T17:05:50;93893.84;;;-0.83;62.10
39681;BME280;26327;42.550;23.120;2023-02-11T17:08:15;93888.81;;;-0.85;61.60
39681;BME280;26327;42.550;23.120;2023-02-11T17:10:41;93800.06;;;-1.54;62.66
39681;BME280;26327;42.550;23.120;2023-02-11T17:13:07;93813.13;;;-1.44;63.79
39681;BME280;26327;42.550;23.120;2023-02-11T17:15:32;93895.00;;;-1.19;65.88
39681;BME280;26327;42.550;23.120;2023-02-11T17:17:58;93809.72;;;-2.06;68.90
39681;BME280;26327;42.550;23.120;2023-02-11T17:20:23;93781.31;;;-2.14;67.89
39681;BME280;26327;42.550;23.120;2023-02-11T17:22:49;93789.69;;;-1.97;66.56
39681;BME280;26327;42.550;23.120;2023-02-11T17:25:15;93797.34;;;-1.81;65.39
39681;BME280;26327;42.550;23.120;2023-02-11T17:27:40;93900.28;;;-1.53;67.10
39681;BME280;26327;42.550;23.120;2023-02-11T17:30:06;93907.91;;;-1.53;67.17
39681;BME280;26327;42.550;23.120;2023-02-11T17:32:32;93873.88;;;-1.52;65.07
39681;BME280;26327;42.550;23.120;2023-02-11T17:34:57;93902.34;;;-1.76;68.14
39681;BME280;26327;42.550;23.120;2023-02-11T17:37:23;93815.97;;;-2.28;67.77
39681;BME280;26327;42.550;23.120;2023-02-11T17:39:48;93884.13;;;-2.17;69.17
39681;BME280;26327;42.550;23.120;2023-02-11T17:42:15;93815.38;;;-2.81;70.44
39681;BME280;26327;42.550;23.120;2023-02-11T17:44:42;93912.91;;;-1.99;69.19
39681;BME280;26327;42.550;23.120;2023-02-11T17:47:08;93925.09;;;-1.73;67.24
39681;BME280;26327;42.550;23.120;2023-02-11T17:49:33;93930.03;;;-1.70;66.74
39681;BME280;26327;42.550;23.120;2023-02-11T17:51:59;93721.44;;;-3.18;67.04
39681;BME280;26327;42.550;23.120;2023-02-11T17:54:24;93846.75;;;-2.65;68.47
39681;BME280;26327;42.550;23.120;2023-02-11T17:56:50;93902.84;;;-2.34;68.70
39681;BME280;26327;42.550;23.120;2023-02-11T17:59:17;93946.41;;;-2.57;70.25
39681;BME280;26327;42.550;23.120;2023-02-11T18:01:43;93937.56;;;-2.85;72.06
39681;BME280;26327;42.550;23.120;2023-02-11T18:04:12;93907.94;;;-3.03;71.95
39681;BME280;26327;42.550;23.120;2023-02-11T18:06:38;93922.75;;;-2.94;71.28
39681;BME280;26327;42.550;23.120;2023-02-11T18:09:03;93821.97;;;-3.46;71.32
39681;BME280;26327;42.550;23.120;2023-02-11T18:11:31;93918.03;;;-2.84;70.30
39681;BME280;26327;42.550;23.120;2023-02-11T18:14:01;93891.38;;;-2.75;69.48
39681;BME280;26327;42.550;23.120;2023-02-11T18:16:27;93931.72;;;-2.52;69.16
39681;BME280;26327;42.550;23.120;2023-02-11T18:18:55;93944.53;;;-2.71;69.52
39681;BME280;26327;42.550;23.120;2023-02-11T18:21:21;93845.59;;;-3.27;70.21
39681;BME280;26327;42.550;23.120;2023-02-11T18:23:47;93849.53;;;-3.39;70.34
39681;BME280;26327;42.550;23.120;2023-02-11T18:26:14;93725.66;;;-4.58;72.51
39681;BME280;26327;42.550;23.120;2023-02-11T18:28:40;93929.88;;;-3.36;75.48
39681;BME280;26327;42.550;23.120;2023-02-11T18:31:06;93908.50;;;-3.87;74.94
39681;BME280;26327;42.550;23.120;2023-02-11T18:33:33;93924.19;;;-3.77;74.34
39681;BME280;26327;42.550;23.120;2023-02-11T18:35:58;93929.22;;;-3.59;71.63
39681;BME280;26327;42.550;23.120;2023-02-11T18:38:24;93926.50;;;-3.37;70.36
39681;BME280;26327;42.550;23.120;2023-02-11T18:40:50;93934.00;;;-3.34;69.98
39681;BME280;26327;42.550;23.120;2023-02-11T18:43:17;93911.75;;;-3.29;71.44
39681;BME280;26327;42.550;23.120;2023-02-11T18:45:47;93869.00;;;-3.74;72.32
39681;BME280;26327;42.550;23.120;2023-02-11T18:48:13;93919.31;;;-3.27;72.15
39681;BME280;26327;42.550;23.120;2023-02-11T18:50:40;93783.34;;;-4.06;71.44
39681;BME280;26327;42.550;23.120;2023-02-11T18:53:05;93916.78;;;-3.46;72.48
39681;BME280;26327;42.550;23.120;2023-02-11T18:55:31;93890.88;;;-3.90;76.38
39681;BME280;26327;42.550;23.120;2023-02-11T18:57:56;93814.47;;;-4.03;74.05
39681;BME280;26327;42.550;23.120;2023-02-11T19:00:22;93884.13;;;-3.54;72.82
39681;BME280;26327;42.550;23.120;2023-02-11T19:02:48;93845.19;;;-3.90;72.41
39681;BME280;26327;42.550;23.120;2023-02-11T19:05:13;93900.16;;;-3.70;73.43
39681;BME280;26327;42.550;23.120;2023-02-11T19:07:39;93781.69;;;-4.07;71.90
39681;BME280;26327;42.550;23.120;2023-02-11T19:10:05;93818.53;;;-4.18;72.39
39681;BME280;26327;42.550;23.120;2023-02-11T19:12:31;93887.72;;;-3.76;73.15
39681;BME280;26327;42.550;23.120;2023-02-11T19:14:57;93898.19;;;-3.46;71.65
39681;BME280;26327;42.550;23.120;2023-02-11T19:17:25;93792.88;;;-4.12;70.78
39681;BME280;26327;42.550;23.120;2023-02-11T19:19:51;93886.50;;;-4.05;74.13
39681;BME280;26327;42.550;23.120;2023-02-11T19:22:16;93902.44;;;-4.41;76.81
39681;BME280;26327;42.550;23.120;2023-02-11T19:24:43;93783.28;;;-5.19;76.87
39681;BME280;26327;42.550;23.120;2023-02-11T19:27:08;93707.56;;;-5.46;75.77
39681;BME280;26327;42.550;23.120;2023-02-11T19:29:34;93893.13;;;-4.40;73.31
39681;BME280;26327;42.550;23.120;2023-02-11T19:32:01;93618.56;;;-6.15;72.66
39681;BME280;26327;42.550;23.120;2023-02-11T19:34:27;93801.00;;;-4.60;71.50
39681;BME280;26327;42.550;23.120;2023-02-11T19:36:52;93888.88;;;-3.84;72.05
39681;BME280;26327;42.550;23.120;2023-02-11T19:39:18;93904.78;;;-3.80;72.23
39681;BME280;26327;42.550;23.120;2023-02-11T19:41:44;93775.81;;;-4.83;73.33
39681;BME280;26327;42.550;23.120;2023-02-11T19:44:12;93759.88;;;-5.45;75.31
39681;BME280;26327;42.550;23.120;2023-02-11T19:46:38;93760.13;;;-5.51;76.16
39681;BME280;26327;42.550;23.120;2023-02-11T19:49:04;93892.47;;;-4.85;77.19
39681;BME280;26327;42.550;23.120;2023-02-11T19:51:32;93867.63;;;-4.97;75.91
39681;BME280;26327;42.550;23.120;2023-02-11T19:54:00;93873.16;;;-4.48;74.31
39681;BME280;26327;42.550;23.120;2023-02-11T19:56:26;93892.16;;;-4.38;72.38
39681;BME280;26327;42.550;23.120;2023-02-11T19:58:53;93780.22;;;-5.07;73.18
39681;BME280;26327;42.550;23.120;2023-02-11T20:01:20;93885.88;;;-4.68;75.24
39681;BME280;26327;42.550;23.120;2023-02-11T20:03:50;93883.28;;;-4.87;76.28
39681;BME280;26327;42.550;23.120;2023-02-11T20:06:20;93858.13;;;-4.92;76.87
39681;BME280;26327;42.550;23.120;2023-02-11T20:08:47;93856.47;;;-4.72;75.87
39681;BME280;26327;42.550;23.120;2023-02-11T20:11:15;93845.81;;;-4.81;76.87
39681;BME280;26327;42.550;23.120;2023-02-11T20:13:41;93850.97;;;-5.02;78.70
39681;BME280;26327;42.550;23.120;2023-02-11T20:16:10;93883.84;;;-4.81;79.17
39681;BME280;26327;42.550;23.120;2023-02-11T20:18:40;93845.75;;;-4.79;78.40
39681;BME280;26327;42.550;23.120;2023-02-11T20:21:11;93889.94;;;-4.64;76.85
39681;BME280;26327;42.550;23.120;2023-02-11T20:23:37;93769.53;;;-5.34;75.68
39681;BME280;26327;42.550;23.120;2023-02-11T20:26:09;93863.28;;;-4.54;74.03
39681;BME280;26327;42.550;23.120;2023-02-11T20:28:35;93882.06;;;-4.79;74.44
39681;BME280;26327;42.550;23.120;2023-02-11T20:31:01;93870.94;;;-5.15;76.71
39681;BME280;26327;42.550;23.120;2023-02-11T20:33:27;93855.06;;;-5.61;79.41
39681;BME280;26327;42.550;23.120;2023-02-11T20:36:03;93739.19;;;-6.17;80.60
39681;BME280;26327;42.550;23.120;2023-02-11T20:38:29;93755.53;;;-5.83;79.53
39681;BME280;26327;42.550;23.120;2023-02-11T20:41:04;93847.66;;;-4.84;77.29
39681;BME280;26327;42.550;23.120;2023-02-11T20:43:30;93839.69;;;-4.95;76.66
39681;BME280;26327;42.550;23.120;2023-02-11T20:46:01;93736.69;;;-5.76;78.58
39681;BME280;26327;42.550;23.120;2023-02-11T20:48:27;93810.63;;;-5.27;78.63
39681;BME280;26327;42.550;23.120;2023-02-11T20:50:53;93734.47;;;-5.43;78.40
39681;BME280;26327;42.550;23.120;2023-02-11T20:53:19;93837.19;;;-4.77;76.74
39681;BME280;26327;42.550;23.120;2023-02-11T20:55:44;93844.56;;;-4.91;76.22
39681;BME280;26327;42.550;23.120;2023-02-11T20:58:10;93846.84;;;-4.85;77.80
39681;BME280;26327;42.550;23.120;2023-02-11T21:00:35;93828.59;;;-4.93;78.19
39681;BME280;26327;42.550;23.120;2023-02-11T21:03:02;93847.03;;;-4.69;78.67
39681;BME280;26327;42.550;23.120;2023-02-11T21:05:27;93825.09;;;-4.70;77.19
39681;BME280;26327;42.550;23.120;2023-02-11T21:07:53;93821.69;;;-4.69;77.24
39681;BME280;26327;42.550;23.120;2023-02-11T21:10:18;93709.28;;;-5.46;78.91
39681;BME280;26327;42.550;23.120;2023-02-11T21:12:44;93796.19;;;-5.05;75.96
39681;BME280;26327;42.550;23.120;2023-02-11T21:15:09;93813.66;;;-4.99;77.19
39681;BME280;26327;42.550;23.120;2023-02-11T21:17:35;93794.00;;;-4.94;78.17
39681;BME280;26327;42.550;23.120;2023-02-11T21:20:01;93808.81;;;-4.85;77.00
39681;BME280;26327;42.550;23.120;2023-02-11T21:22:27;93743.50;;;-5.17;76.62
39681;BME280;26327;42.550;23.120;2023-02-11T21:24:52;93794.63;;;-5.08;76.59
39681;BME280;26327;42.550;23.120;2023-02-11T21:27:18;93811.41;;;-5.05;78.29
39681;BME280;26327;42.550;23.120;2023-02-11T21:29:43;93769.91;;;-5.02;78.27
39681;BME280;26327;42.550;23.120;2023-02-11T21:32:09;93707.09;;;-5.54;78.10
39681;BME280;26327;42.550;23.120;2023-02-11T21:34:34;93774.22;;;-5.04;79.21
39681;BME280;26327;42.550;23.120;2023-02-11T21:37:00;93801.53;;;-4.72;78.35
39681;BME280;26327;42.550;23.120;2023-02-11T21:39:25;93784.16;;;-5.00;79.10
39681;BME280;26327;42.550;23.120;2023-02-11T21:41:51;93795.06;;;-4.79;79.04
39681;BME280;26327;42.550;23.120;2023-02-11T21:44:17;93791.47;;;-4.94;79.80
39681;BME280;26327;42.550;23.120;2023-02-11T21:46:43;93680.88;;;-5.53;79.88
39681;BME280;26327;42.550;23.120;2023-02-11T21:49:08;93745.91;;;-5.14;79.22
39681;BME280;26327;42.550;23.120;2023-02-11T21:51:34;93803.06;;;-4.88;79.29
39681;BME280;26327;42.550;23.120;2023-02-11T21:54:00;93798.25;;;-4.94;79.71
39681;BME280;26327;42.550;23.120;2023-02-11T21:56:28;93784.53;;;-4.70;78.07
39681;BME280;26327;42.550;23.120;2023-02-11T21:58:55;93780.00;;;-4.63;77.32
39681;BME280;26327;42.550;23.120;2023-02-11T22:01:23;93771.31;;;-4.58;77.53
39681;BME280;26327;42.550;23.120;2023-02-11T22:03:49;93660.97;;;-5.23;76.90
39681;BME280;26327;42.550;23.120;2023-02-11T22:06:26;93629.47;;;-5.55;76.38
39681;BME280;26327;42.550;23.120;2023-02-11T22:08:54;93734.75;;;-4.91;75.93
39681;BME280;26327;42.550;23.120;2023-02-11T22:11:20;93677.59;;;-5.36;74.55
39681;BME280;26327;42.550;23.120;2023-02-11T22:13:46;93767.50;;;-4.87;76.45
39681;BME280;26327;42.550;23.120;2023-02-11T22:16:14;93757.81;;;-5.16;79.10
39681;BME280;26327;42.550;23.120;2023-02-11T22:18:40;93726.91;;;-5.24;80.74
39681;BME280;26327;42.550;23.120;2023-02-11T22:21:08;93665.84;;;-5.37;80.33
39681;BME280;26327;42.550;23.120;2023-02-11T22:23:34;93735.19;;;-4.63;79.08
39681;BME280;26327;42.550;23.120;2023-02-11T22:26:15;93769.97;;;-4.29;77.28
39681;BME280;26327;42.550;23.120;2023-02-11T22:28:41;93588.44;;;-5.43;76.82
39681;BME280;26327;42.550;23.120;2023-02-11T22:31:14;93787.06;;;-4.51;78.32
39681;BME280;26327;42.550;23.120;2023-02-11T22:33:40;93774.88;;;-4.62;77.79
39681;BME280;26327;42.550;23.120;2023-02-11T22:36:09;93790.16;;;-4.45;76.75
39681;BME280;26327;42.550;23.120;2023-02-11T22:38:36;93767.94;;;-4.58;77.10
39681;BME280;26327;42.550;23.120;2023-02-11T22:41:07;93786.03;;;-4.47;76.88
39681;BME280;26327;42.550;23.120;2023-02-11T22:43:33;93768.75;;;-4.77;78.61
39681;BME280;26327;42.550;23.120;2023-02-11T22:46:00;93712.38;;;-4.82;77.51
39681;BME280;26327;42.550;23.120;2023-02-11T22:48:26;93677.50;;;-5.14;77.66
39681;BME280;26327;42.550;23.120;2023-02-11T22:50:51;93743.13;;;-4.52;75.77
39681;BME280;26327;42.550;23.120;2023-02-11T22:53:17;93679.28;;;-4.97;74.75
39681;BME280;26327;42.550;23.120;2023-02-11T22:55:42;93774.16;;;-4.84;75.83
39681;BME280;26327;42.550;23.120;2023-02-11T22:58:08;93795.81;;;-4.77;77.86
39681;BME280;26327;42.550;23.120;2023-02-11T23:00:40;93689.66;;;-5.22;77.51
39681;BME280;26327;42.550;23.120;2023-02-11T23:03:07;93765.47;;;-4.41;76.52
39681;BME280;26327;42.550;23.120;2023-02-11T23:05:39;93672.09;;;-5.07;75.39
39681;BME280;26327;42.550;23.120;2023-02-11T23:08:07;93791.78;;;-4.44;75.91
39681;BME280;26327;42.550;23.120;2023-02-11T23:10:34;93786.03;;;-4.47;75.21
39681;BME280;26327;42.550;23.120;2023-02-11T23:12:59;93762.00;;;-4.57;75.52
39681;BME280;26327;42.550;23.120;2023-02-11T23:15:24;93682.09;;;-5.03;76.78
39681;BME280;26327;42.550;23.120;2023-02-11T23:17:50;93776.72;;;-4.47;76.92
39681;BME280;26327;42.550;23.120;2023-02-11T23:20:15;93668.81;;;-4.90;76.46
39681;BME280;26327;42.550;23.120;2023-02-11T23:22:41;93761.56;;;-4.48;77.01
39681;BME280;26327;42.550;23.120;2023-02-11T23:25:06;93744.97;;;-4.93;79.53
